createdAt,value
2018-07-11T00:00:02.010Z,14.36
2018-07-11T00:02:33.152Z,14.26
2018-07-11T00:05:04.193Z,14.22
2018-07-11T00:07:35.080Z,14.38
2018-07-11T00:10:06.638Z,14.45
2018-07-11T00:12:37.707Z,14.48
2018-07-11T00:15:08.801Z,14.42
2018-07-11T00:17:40.266Z,14.34
2018-07-11T00:20:11.295Z,14.34
2018-07-11T00:22:42.304Z,14.29
2018-07-11T00:25:14.043Z,14.34
2018-07-11T00:27:45.051Z,14.37
2018-07-11T00:30:16.357Z,14.40
2018-07-11T00:32:47.114Z,14.38
2018-07-11T00:35:17.833Z,14.49
2018-07-11T00:37:49.188Z,14.36
2018-07-11T00:40:20.235Z,14.35
2018-07-11T00:42:51.497Z,14.40
2018-07-11T00:45:22.240Z,14.44
2018-07-11T00:47:52.982Z,14.42
2018-07-11T00:50:24.042Z,14.36
2018-07-11T00:52:55.451Z,14.25
2018-07-11T00:55:26.550Z,14.32
2018-07-11T00:58:08.095Z,14.34
2018-07-11T01:00:38.972Z,14.34
2018-07-11T01:03:09.866Z,14.46
2018-07-11T01:05:40.610Z,14.50
2018-07-11T01:08:11.984Z,14.58
2018-07-11T01:10:42.801Z,14.59
2018-07-11T01:13:13.598Z,14.63
2018-07-11T01:15:44.400Z,14.69
2018-07-11T01:18:18.723Z,14.79
2018-07-11T01:20:49.233Z,14.86
2018-07-11T01:23:20.114Z,14.89
2018-07-11T01:25:51.120Z,14.94
2018-07-11T01:28:22.183Z,14.95
2018-07-11T01:30:53.228Z,14.93
2018-07-11T01:33:24.234Z,14.94
2018-07-11T01:35:55.274Z,14.97
2018-07-11T01:38:26.309Z,14.97
2018-07-11T01:40:57.387Z,15.02
2018-07-11T01:43:28.132Z,14.98
2018-07-11T01:45:58.885Z,14.97
2018-07-11T01:48:29.963Z,14.95
2018-07-11T01:51:00.822Z,14.87
2018-07-11T01:53:31.855Z,14.73
2018-07-11T01:56:03.218Z,14.64
2018-07-11T01:58:34.545Z,14.63
2018-07-11T02:01:06.222Z,14.62
2018-07-11T02:03:36.767Z,14.65
2018-07-11T02:06:07.692Z,14.65
2018-07-11T02:08:38.456Z,14.66
2018-07-11T02:11:09.229Z,14.62
2018-07-11T02:13:40.281Z,14.57
2018-07-11T02:16:11.399Z,14.53
2018-07-11T02:18:42.511Z,14.57
2018-07-11T02:21:13.314Z,14.63
2018-07-11T02:23:44.711Z,14.71
2018-07-11T02:26:15.537Z,14.76
2018-07-11T02:28:46.266Z,14.79
2018-07-11T02:31:17.038Z,14.80
2018-07-11T02:33:48.115Z,14.79
2018-07-11T02:36:19.143Z,14.83
2018-07-11T02:38:49.942Z,14.78
2018-07-11T02:41:20.857Z,14.69
2018-07-11T02:43:51.904Z,14.61
2018-07-11T02:46:27.952Z,14.48
2018-07-11T02:48:58.962Z,14.44
2018-07-11T02:51:30.008Z,14.49
2018-07-11T02:54:01.062Z,14.44
2018-07-11T02:56:31.783Z,14.50
2018-07-11T02:59:03.532Z,14.55
2018-07-11T03:01:34.568Z,14.53
2018-07-11T03:04:06.194Z,14.54
2018-07-11T03:06:36.946Z,14.47
2018-07-11T03:09:07.714Z,14.44
2018-07-11T03:11:38.866Z,14.33
2018-07-11T03:14:10.228Z,14.32
2018-07-11T03:16:41.281Z,14.29
2018-07-11T03:19:12.528Z,14.31
2018-07-11T03:21:43.571Z,14.35
2018-07-11T03:24:14.770Z,14.43
2018-07-11T03:26:45.876Z,14.50
2018-07-11T03:29:17.903Z,14.53
2018-07-11T03:31:48.657Z,14.56
2018-07-11T03:34:19.679Z,14.61
2018-07-11T03:36:50.664Z,14.65
2018-07-11T03:39:21.666Z,14.70
2018-07-11T03:41:52.714Z,14.67
2018-07-11T03:44:23.632Z,14.68
2018-07-11T03:46:54.546Z,14.69
2018-07-11T03:49:25.566Z,14.67
2018-07-11T03:51:56.582Z,14.57
2018-07-11T03:54:27.466Z,14.52
2018-07-11T03:56:58.470Z,14.58
2018-07-11T03:59:29.588Z,14.60
2018-07-11T04:02:00.775Z,14.62
2018-07-11T04:04:31.907Z,14.57
2018-07-11T04:07:02.935Z,14.59
2018-07-11T04:09:33.931Z,14.66
2018-07-11T04:12:04.962Z,14.70
2018-07-11T04:14:35.723Z,14.70
2018-07-11T04:17:06.983Z,14.62
2018-07-11T04:19:37.835Z,14.62
2018-07-11T04:22:09.091Z,14.60
2018-07-11T04:24:40.139Z,14.61
2018-07-11T04:27:11.229Z,14.62
2018-07-11T04:29:42.644Z,14.61
2018-07-11T04:32:13.810Z,14.63
2018-07-11T04:34:45.119Z,14.65
2018-07-11T04:37:16.230Z,14.55
2018-07-11T04:39:47.830Z,14.54
2018-07-11T04:42:18.597Z,14.54
2018-07-11T04:44:49.682Z,14.62
2018-07-11T04:47:20.506Z,14.70
2018-07-11T04:49:51.594Z,14.72
2018-07-11T04:52:22.650Z,14.77
2018-07-11T04:54:53.517Z,14.72
2018-07-11T04:57:24.379Z,14.67
2018-07-11T04:59:55.486Z,14.72
2018-07-11T05:02:26.518Z,14.82
2018-07-11T05:04:57.545Z,14.89
2018-07-11T05:07:28.328Z,14.92
2018-07-11T05:09:59.384Z,14.98
2018-07-11T05:12:30.483Z,15.02
2018-07-11T05:15:01.714Z,15.05
2018-07-11T05:17:32.423Z,15.13
2018-07-11T05:20:03.151Z,15.16
2018-07-11T05:22:34.158Z,15.17
2018-07-11T05:25:05.262Z,15.14
2018-07-11T05:27:36.559Z,15.22
2018-07-11T05:30:08.103Z,15.26
2018-07-11T05:32:39.126Z,15.10
2018-07-11T05:35:11.251Z,15.13
2018-07-11T05:37:42.366Z,15.16
2018-07-11T05:40:13.178Z,15.24
2018-07-11T05:42:44.196Z,15.32
2018-07-11T05:45:15.350Z,15.44
2018-07-11T05:47:46.224Z,15.50
2018-07-11T05:50:16.979Z,15.57
2018-07-11T05:52:47.747Z,15.57
2018-07-11T05:55:18.883Z,15.55
2018-07-11T05:57:50.031Z,15.59
2018-07-11T06:00:20.777Z,15.66
2018-07-11T06:02:51.873Z,15.75
2018-07-11T06:05:22.957Z,15.82
2018-07-11T06:07:54.138Z,15.92
2018-07-11T06:10:25.166Z,16.05
2018-07-11T06:12:56.201Z,16.18
2018-07-11T06:15:27.005Z,16.35
2018-07-11T06:17:58.392Z,16.51
2018-07-11T06:20:29.170Z,16.59
2018-07-11T06:22:59.927Z,16.69
2018-07-11T06:25:30.709Z,16.90
2018-07-11T06:28:01.747Z,17.22
2018-07-11T06:30:33.110Z,17.46
2018-07-11T06:33:04.425Z,17.55
2018-07-11T06:35:35.542Z,17.72
2018-07-11T06:38:06.574Z,17.98
2018-07-11T06:40:37.635Z,18.05
2018-07-11T06:43:08.423Z,18.09
2018-07-11T06:45:39.220Z,18.11
2018-07-11T06:48:10.307Z,18.28
2018-07-11T06:50:41.120Z,18.40
2018-07-11T06:53:12.009Z,18.42
2018-07-11T06:55:43.372Z,18.66
2018-07-11T06:58:14.382Z,18.93
2018-07-11T07:00:45.758Z,18.76
2018-07-11T07:03:16.731Z,18.91
2018-07-11T07:05:47.888Z,19.18
2018-07-11T07:08:18.647Z,19.26
2018-07-11T07:10:49.400Z,19.32
2018-07-11T07:13:20.435Z,19.20
2018-07-11T07:15:51.247Z,19.17
2018-07-11T07:18:22.287Z,19.32
2018-07-11T07:20:53.810Z,19.50
2018-07-11T07:23:24.543Z,19.40
2018-07-11T07:25:55.577Z,19.14
2018-07-11T07:28:26.657Z,19.13
2018-07-11T07:30:58.114Z,19.11
2018-07-11T07:33:29.198Z,18.97
2018-07-11T07:36:00.250Z,19.05
2018-07-11T07:38:31.913Z,19.12
2018-07-11T07:41:02.842Z,19.06
2018-07-11T07:43:34.114Z,19.12
2018-07-11T07:46:04.906Z,19.18
2018-07-11T07:48:35.890Z,19.16
2018-07-11T07:51:06.664Z,19.10
2018-07-11T07:53:37.402Z,19.07
2018-07-11T07:56:08.257Z,19.01
2018-07-11T07:58:39.077Z,18.90
2018-07-11T08:01:10.470Z,18.73
2018-07-11T08:03:41.293Z,18.82
2018-07-11T08:06:12.375Z,18.90
2018-07-11T08:08:43.461Z,18.92
2018-07-11T08:11:15.159Z,18.89
2018-07-11T08:13:46.186Z,18.96
2018-07-11T08:16:17.273Z,18.89
2018-07-11T08:18:48.634Z,18.70
2018-07-11T08:21:19.749Z,18.64
2018-07-11T08:24:07.840Z,18.64
2018-07-11T08:27:57.631Z,18.66
2018-07-11T08:33:53.346Z,18.69
2018-07-11T08:38:43.289Z,18.44
2018-07-11T08:43:50.901Z,18.55
2018-07-11T08:46:43.957Z,18.65
2018-07-11T08:49:40.656Z,18.59
2018-07-11T08:52:24.807Z,18.62
2018-07-11T08:55:21.167Z,18.67
2018-07-11T08:59:15.515Z,18.64
2018-07-11T09:02:34.662Z,18.73
2018-07-11T09:05:22.492Z,18.69
2018-07-11T09:10:16.890Z,18.61
2018-07-11T09:12:59.807Z,18.52
2018-07-11T09:15:47.784Z,18.59
2018-07-11T09:19:28.968Z,18.51
2018-07-11T09:22:30.839Z,18.55
2018-07-11T09:25:01.834Z,18.69
2018-07-11T09:27:32.563Z,18.83
2018-07-11T09:30:03.592Z,18.96
2018-07-11T09:32:34.928Z,19.03
2018-07-11T09:35:05.915Z,19.13
2018-07-11T09:37:37.313Z,19.23
2018-07-11T09:40:08.482Z,19.18
2018-07-11T09:42:39.563Z,19.32
2018-07-11T09:45:11.380Z,19.60
2018-07-11T09:47:42.965Z,19.90
2018-07-11T09:50:15.003Z,20.01
2018-07-11T09:52:46.077Z,19.92
2018-07-11T09:55:17.085Z,20.05
2018-07-11T09:57:48.403Z,20.15
2018-07-11T10:01:23.418Z,20.07
2018-07-11T10:03:55.028Z,20.12
2018-07-11T10:06:28.202Z,19.97
2018-07-11T10:09:00.098Z,19.81
2018-07-11T10:11:31.195Z,19.97
2018-07-11T10:14:02.219Z,20.06
2018-07-11T10:16:33.801Z,20.19
2018-07-11T10:19:05.754Z,20.13
2018-07-11T10:21:36.754Z,20.06
2018-07-11T10:24:07.937Z,20.06
2018-07-11T10:26:38.701Z,20.16
2018-07-11T10:29:09.563Z,20.24
2018-07-11T10:31:40.948Z,20.29
2018-07-11T10:34:12.063Z,20.31
2018-07-11T10:36:43.078Z,20.24
2018-07-11T10:39:14.160Z,20.32
2018-07-11T10:41:45.172Z,20.35
2018-07-11T10:44:18.701Z,20.25
2018-07-11T10:46:50.498Z,20.27
2018-07-11T10:49:21.560Z,20.34
2018-07-11T10:51:53.227Z,20.42
2018-07-11T10:54:24.357Z,20.41
2018-07-11T10:56:56.313Z,20.40
2018-07-11T10:59:28.035Z,20.17
2018-07-11T11:01:59.141Z,20.10
2018-07-11T11:04:30.578Z,20.01
2018-07-11T11:07:01.703Z,19.99
2018-07-11T11:09:32.744Z,20.00
2018-07-11T11:12:04.527Z,20.09
2018-07-11T11:14:35.798Z,20.11
2018-07-11T11:17:06.990Z,20.12
2018-07-11T11:19:38.111Z,20.16
2018-07-11T11:22:09.639Z,20.13
2018-07-11T11:24:41.659Z,20.12
2018-07-11T11:27:13.208Z,20.12
2018-07-11T11:29:44.194Z,20.14
2018-07-11T11:32:16.680Z,20.22
2018-07-11T11:34:47.851Z,20.13
2018-07-11T11:37:19.430Z,20.15
2018-07-11T11:39:51.388Z,20.15
2018-07-11T11:42:23.427Z,20.21
2018-07-11T11:44:54.852Z,20.20
2018-07-11T11:47:27.188Z,20.26
2018-07-11T11:49:58.565Z,20.12
2018-07-11T11:52:30.240Z,20.19
2018-07-11T11:55:01.676Z,20.27
2018-07-11T11:57:32.918Z,20.18
2018-07-11T12:00:04.033Z,20.22
2018-07-11T12:02:35.432Z,20.22
2018-07-11T12:05:07.617Z,20.17
2018-07-11T12:07:38.760Z,20.01
2018-07-11T12:10:10.262Z,20.03
2018-07-11T12:12:41.990Z,19.96
2018-07-11T12:15:13.597Z,19.81
2018-07-11T12:17:44.319Z,19.71
2018-07-11T12:20:15.063Z,19.70
2018-07-11T12:22:46.335Z,19.56
2018-07-11T12:25:17.527Z,19.50
2018-07-11T12:27:48.651Z,19.41
2018-07-11T12:30:19.681Z,19.36
2018-07-11T12:32:50.515Z,19.17
2018-07-11T12:35:21.798Z,19.07
2018-07-11T12:37:53.115Z,19.08
2018-07-11T12:40:24.194Z,18.98
2018-07-11T12:42:54.933Z,19.03
2018-07-11T12:45:26.842Z,19.03
2018-07-11T12:48:02.938Z,18.95
2018-07-11T12:50:33.655Z,18.86
2018-07-11T12:53:04.770Z,18.83
2018-07-11T12:55:36.122Z,18.66
2018-07-11T12:58:06.935Z,18.67
2018-07-11T13:00:38.144Z,18.63
2018-07-11T13:03:09.133Z,18.80
2018-07-11T13:05:40.554Z,18.84
2018-07-11T13:08:11.630Z,18.86
2018-07-11T13:10:42.660Z,18.88
2018-07-11T13:13:13.509Z,18.91
2018-07-11T13:15:44.990Z,18.86
2018-07-11T13:18:16.611Z,18.99
2018-07-11T13:20:48.185Z,18.97
2018-07-11T13:23:19.260Z,18.95
2018-07-11T13:25:50.144Z,18.98
2018-07-11T13:28:21.584Z,19.01
2018-07-11T13:30:52.940Z,19.06
2018-07-11T13:33:24.136Z,19.06
2018-07-11T13:35:55.267Z,19.07
2018-07-11T13:38:26.063Z,19.07
2018-07-11T13:40:56.859Z,19.13
2018-07-11T13:43:27.974Z,19.18
2018-07-11T13:45:59.470Z,19.18
2018-07-11T13:48:30.462Z,19.28
2018-07-11T13:51:01.901Z,19.33
2018-07-11T13:53:33.374Z,19.33
2018-07-11T13:56:04.378Z,19.33
2018-07-11T13:58:36.758Z,19.30
2018-07-11T14:01:07.687Z,19.26
2018-07-11T14:03:38.435Z,19.15
2018-07-11T14:06:09.532Z,19.01
2018-07-11T14:08:40.660Z,18.84
2018-07-11T14:11:12.092Z,18.89
2018-07-11T14:13:43.322Z,18.57
2018-07-11T14:16:14.961Z,18.32
2018-07-11T14:18:46.038Z,18.22
2018-07-11T14:21:16.833Z,18.11
2018-07-11T14:23:48.382Z,18.11
2018-07-11T14:26:22.231Z,18.08
2018-07-11T14:28:54.304Z,18.13
2018-07-11T14:31:36.232Z,18.08
2018-07-11T14:34:09.125Z,18.16
2018-07-11T14:36:40.032Z,18.05
2018-07-11T14:39:11.111Z,18.01
2018-07-11T14:41:42.297Z,18.10
2018-07-11T14:44:13.134Z,18.17
2018-07-11T14:46:44.169Z,18.23
2018-07-11T14:49:16.269Z,18.17
2018-07-11T14:51:47.009Z,18.09
2018-07-11T14:54:19.451Z,18.02
2018-07-11T14:56:51.479Z,17.96
2018-07-11T14:59:23.254Z,17.95
2018-07-11T15:01:54.655Z,17.91
2018-07-11T15:04:25.707Z,17.88
2018-07-11T15:06:56.807Z,17.95
2018-07-11T15:09:28.111Z,17.95
2018-07-11T15:11:59.282Z,18.07
2018-07-11T15:14:30.468Z,18.15
2018-07-11T15:17:01.291Z,18.23
2018-07-11T15:19:32.499Z,18.28
2018-07-11T15:22:04.147Z,18.33
2018-07-11T15:24:35.227Z,18.36
2018-07-11T15:27:06.133Z,18.48
2018-07-11T15:29:36.961Z,18.40
2018-07-11T15:32:07.994Z,18.42
2018-07-11T15:34:40.370Z,18.53
2018-07-11T15:37:11.834Z,18.54
2018-07-11T15:39:43.575Z,18.57
2018-07-11T15:42:14.645Z,18.57
2018-07-11T15:44:45.973Z,18.41
2018-07-11T15:47:20.269Z,18.49
2018-07-11T15:49:53.465Z,18.52
2018-07-11T15:52:26.065Z,18.48
2018-07-11T15:54:59.932Z,18.46
2018-07-11T15:57:44.757Z,18.52
2018-07-11T16:00:16.347Z,18.51
2018-07-11T16:02:49.242Z,18.50
2018-07-11T16:05:23.197Z,18.56
2018-07-11T16:07:55.182Z,18.46
2018-07-11T16:10:42.674Z,18.53
2018-07-11T16:13:13.465Z,18.50
2018-07-11T16:15:44.947Z,18.50
2018-07-11T16:18:15.930Z,18.54
2018-07-11T16:20:47.005Z,18.57
2018-07-11T16:23:17.661Z,18.66
2018-07-11T16:25:48.488Z,18.69
2018-07-11T16:28:19.535Z,18.69
2018-07-11T16:30:50.788Z,18.59
2018-07-11T16:33:21.855Z,18.65
2018-07-11T16:35:53.628Z,18.63
2018-07-11T16:38:25.104Z,18.64
2018-07-11T16:40:56.171Z,18.58
2018-07-11T16:43:27.674Z,18.64
2018-07-11T16:45:58.902Z,18.68
2018-07-11T16:48:29.625Z,18.60
2018-07-11T16:51:00.426Z,18.68
2018-07-11T16:53:31.309Z,18.70
2018-07-11T16:56:02.491Z,18.69
2018-07-11T16:58:42.625Z,18.72
2018-07-11T17:01:13.899Z,18.79
2018-07-11T17:03:46.286Z,18.81
2018-07-11T17:06:18.182Z,18.83
2018-07-11T17:08:52.454Z,18.91
2018-07-11T17:11:27.156Z,18.92
2018-07-11T17:14:02.416Z,18.94
2018-07-11T17:17:11.076Z,18.91
2018-07-11T17:19:54.702Z,18.84
2018-07-11T17:22:32.677Z,18.80
2018-07-11T17:25:06.800Z,18.77
2018-07-11T17:27:37.726Z,18.80
2018-07-11T17:30:08.907Z,18.80
2018-07-11T17:32:39.986Z,18.83
2018-07-11T17:35:10.716Z,18.83
2018-07-11T17:37:42.807Z,18.88
